createdAt,value
2022-09-16T00:01:12.901Z,10.25
2022-09-16T00:03:40.581Z,10.60
2022-09-16T00:06:07.970Z,11.35
2022-09-16T00:08:35.060Z,13.15
2022-09-16T00:11:02.609Z,11.82
2022-09-16T00:13:29.842Z,12.80
2022-09-16T00:15:56.955Z,10.88
2022-09-16T00:18:25.144Z,12.10
2022-09-16T00:20:52.709Z,14.98
2022-09-16T00:23:19.942Z,14.15
2022-09-16T00:25:56.006Z,12.98
2022-09-16T00:28:23.232Z,14.20
2022-09-16T00:30:50.458Z,36.95
2022-09-16T00:33:17.577Z,21.70
2022-09-16T00:35:44.667Z,15.38
2022-09-16T00:38:11.850Z,18.70
2022-09-16T00:40:45.714Z,19.00
2022-09-16T00:43:13.777Z,17.35
2022-09-16T00:45:41.676Z,16.73
2022-09-16T00:48:09.614Z,16.35
2022-09-16T00:50:42.384Z,21.20
2022-09-16T00:53:10.147Z,17.73
2022-09-16T00:55:37.773Z,19.40
2022-09-16T00:58:11.327Z,22.00
2022-09-16T01:00:38.781Z,16.95
2022-09-16T01:03:06.145Z,15.93
2022-09-16T01:05:33.247Z,13.18
2022-09-16T01:08:00.317Z,14.38
2022-09-16T01:10:27.557Z,14.10
2022-09-16T01:13:01.947Z,16.40
2022-09-16T01:15:32.695Z,16.85
2022-09-16T01:18:18.630Z,14.10
2022-09-16T01:20:50.803Z,13.77
2022-09-16T01:23:30.282Z,16.08
2022-09-16T01:26:15.930Z,17.08
2022-09-16T01:28:52.481Z,14.00
2022-09-16T01:31:22.020Z,14.43
2022-09-16T01:33:49.085Z,18.35
2022-09-16T01:36:22.064Z,18.02
2022-09-16T01:38:53.456Z,15.30
2022-09-16T01:41:28.327Z,15.82
2022-09-16T01:43:58.086Z,17.08
2022-09-16T01:46:28.295Z,17.63
2022-09-16T01:49:02.363Z,18.95
2022-09-16T01:51:31.865Z,28.13
2022-09-16T01:54:20.009Z,22.23
2022-09-16T01:57:07.608Z,20.10
2022-09-16T01:59:37.278Z,19.23
2022-09-16T02:02:06.314Z,22.20
2022-09-16T02:04:38.079Z,20.17
2022-09-16T02:07:05.342Z,18.35
2022-09-16T02:09:39.900Z,23.35
2022-09-16T02:12:07.721Z,23.65
2022-09-16T02:14:36.402Z,22.33
2022-09-16T02:17:05.684Z,25.83
2022-09-16T02:19:34.883Z,23.15
2022-09-16T02:22:02.512Z,19.52
2022-09-16T02:24:29.639Z,23.17
2022-09-16T02:26:59.645Z,22.65
2022-09-16T02:29:27.896Z,21.88
2022-09-16T02:31:56.136Z,23.63
2022-09-16T02:34:27.559Z,24.15
2022-09-16T02:36:56.514Z,21.63
2022-09-16T02:39:27.390Z,22.40
2022-09-16T02:41:55.232Z,21.30
2022-09-16T02:44:25.725Z,22.13
2022-09-16T02:46:55.970Z,17.92
2022-09-16T02:49:23.037Z,18.17
2022-09-16T02:51:56.323Z,20.70
2022-09-16T02:54:37.109Z,20.35
2022-09-16T02:57:04.814Z,19.42
2022-09-16T02:59:31.911Z,25.73
2022-09-16T03:01:59.451Z,36.95
2022-09-16T03:04:26.591Z,40.00
2022-09-16T03:06:53.706Z,35.38
2022-09-16T03:09:24.243Z,31.52
2022-09-16T03:12:03.806Z,28.17
2022-09-16T03:14:37.470Z,22.00
2022-09-16T03:17:13.694Z,20.77
2022-09-16T03:19:52.890Z,21.15
2022-09-16T03:22:27.940Z,25.95
2022-09-16T03:24:57.776Z,22.45
2022-09-16T03:27:33.406Z,18.65
2022-09-16T03:30:03.941Z,16.02
2022-09-16T03:32:39.091Z,17.75
2022-09-16T03:35:10.454Z,20.45
2022-09-16T03:37:37.676Z,17.05
2022-09-16T03:40:06.514Z,15.70
2022-09-16T03:42:33.631Z,16.35
2022-09-16T03:45:00.793Z,12.40
2022-09-16T03:47:27.901Z,12.77
2022-09-16T03:49:54.970Z,13.32
2022-09-16T03:52:22.104Z,9.90
2022-09-16T03:54:49.251Z,16.92
2022-09-16T03:57:16.336Z,13.57
2022-09-16T03:59:43.407Z,12.93
2022-09-16T04:02:10.503Z,15.25
2022-09-16T04:04:37.580Z,18.48
2022-09-16T04:07:04.981Z,12.70
2022-09-16T04:09:32.097Z,14.88
2022-09-16T04:11:59.603Z,11.93
2022-09-16T04:14:26.777Z,12.95
2022-09-16T04:16:55.044Z,16.88
2022-09-16T04:19:22.183Z,13.95
2022-09-16T04:21:49.261Z,10.77
2022-09-16T04:24:16.367Z,23.55
2022-09-16T04:26:43.493Z,22.73
2022-09-16T04:29:10.623Z,27.00
2022-09-16T04:31:37.752Z,30.02
2022-09-16T04:34:05.135Z,28.55
2022-09-16T04:36:32.591Z,29.77
2022-09-16T04:38:59.716Z,32.03
2022-09-16T04:41:27.120Z,35.10
2022-09-16T04:43:56.101Z,27.77
2022-09-16T04:46:23.683Z,36.90
2022-09-16T04:48:51.046Z,41.65
2022-09-16T04:51:18.314Z,36.42
2022-09-16T04:53:45.443Z,32.00
2022-09-16T04:56:16.786Z,35.40
2022-09-16T04:58:44.243Z,35.00
2022-09-16T05:01:14.970Z,22.42
2022-09-16T05:03:42.709Z,20.65
2022-09-16T05:06:18.377Z,18.10
2022-09-16T05:08:47.648Z,18.10
2022-09-16T05:11:17.280Z,21.13
2022-09-16T05:13:44.372Z,19.77
2022-09-16T05:16:12.350Z,22.33
2022-09-16T05:18:39.653Z,21.65
2022-09-16T05:21:07.788Z,31.13
2022-09-16T05:23:35.070Z,34.92
2022-09-16T05:26:06.425Z,50.25
2022-09-16T05:28:34.014Z,45.97
2022-09-16T05:31:17.594Z,53.08
2022-09-16T05:33:45.606Z,33.42
2022-09-16T05:36:17.003Z,23.90
2022-09-16T05:38:59.087Z,16.40
2022-09-16T05:41:31.409Z,14.13
2022-09-16T05:43:59.751Z,13.50
2022-09-16T05:46:26.977Z,15.20
2022-09-16T05:48:54.401Z,15.02
2022-09-16T05:51:22.190Z,15.27
2022-09-16T05:53:49.635Z,11.38
2022-09-16T05:56:17.342Z,13.80
2022-09-16T05:58:44.464Z,11.45
2022-09-16T06:01:12.556Z,14.27
2022-09-16T06:03:40.148Z,13.35
2022-09-16T06:06:13.431Z,12.70
2022-09-16T06:08:40.859Z,13.57
2022-09-16T06:11:08.858Z,14.23
2022-09-16T06:13:35.998Z,11.55
2022-09-16T06:16:03.413Z,11.43
2022-09-16T06:18:30.858Z,11.48
2022-09-16T06:20:58.296Z,10.48
2022-09-16T06:23:25.441Z,10.98
2022-09-16T06:26:02.326Z,9.95
2022-09-16T06:28:29.806Z,11.63
2022-09-16T06:31:03.546Z,10.13
2022-09-16T06:33:30.965Z,13.63
2022-09-16T06:35:58.259Z,13.05
2022-09-16T06:38:25.503Z,9.55
2022-09-16T06:40:52.650Z,10.00
2022-09-16T06:43:19.784Z,8.73
2022-09-16T06:45:47.166Z,6.10
2022-09-16T06:48:14.515Z,5.95
2022-09-16T06:50:41.608Z,5.70
2022-09-16T06:53:08.703Z,4.75
2022-09-16T06:55:36.063Z,4.20
2022-09-16T06:58:03.191Z,4.28
2022-09-16T07:00:30.431Z,9.35
2022-09-16T07:02:57.520Z,5.95
2022-09-16T07:05:25.357Z,4.22
2022-09-16T07:07:52.995Z,4.10
2022-09-16T07:10:20.194Z,3.47
2022-09-16T07:12:47.266Z,4.88
2022-09-16T07:15:14.359Z,4.97
2022-09-16T07:17:41.516Z,4.22
2022-09-16T07:20:08.798Z,3.35
2022-09-16T07:22:35.903Z,3.75
2022-09-16T07:25:02.975Z,3.00
2022-09-16T07:27:31.212Z,3.60
2022-09-16T07:30:00.186Z,3.42
2022-09-16T07:32:27.508Z,3.28
2022-09-16T07:34:54.684Z,3.28
2022-09-16T07:37:22.105Z,3.00
2022-09-16T07:39:50.487Z,3.72
2022-09-16T07:42:17.682Z,3.38
2022-09-16T07:44:44.771Z,4.55
2022-09-16T07:47:11.862Z,3.85
2022-09-16T07:49:38.968Z,4.22
2022-09-16T07:52:06.095Z,3.08
2022-09-16T07:54:33.230Z,4.97
2022-09-16T07:57:00.380Z,4.45
2022-09-16T07:59:27.555Z,2.65
2022-09-16T08:01:54.847Z,2.90
2022-09-16T08:04:22.072Z,3.47
2022-09-16T08:06:49.234Z,4.30
2022-09-16T08:12:04.711Z,2.45
2022-09-16T08:14:33.104Z,3.78
2022-09-16T08:17:01.127Z,2.10
2022-09-16T08:19:28.252Z,1.60
2022-09-16T08:21:55.344Z,1.80
2022-09-16T08:24:22.579Z,2.85
2022-09-16T08:26:49.831Z,13.38
2022-09-16T08:29:17.273Z,3.35
2022-09-16T08:31:44.798Z,2.03
2022-09-16T08:34:11.944Z,3.20
2022-09-16T08:36:39.087Z,2.00
2022-09-16T08:39:06.320Z,3.78
2022-09-16T08:41:33.433Z,2.67
2022-09-16T08:44:07.075Z,3.65
2022-09-16T08:46:42.756Z,2.47
2022-09-16T08:49:22.735Z,3.65
2022-09-16T08:51:49.954Z,2.10
2022-09-16T08:54:27.960Z,2.22
2022-09-16T08:56:56.032Z,1.92
2022-09-16T08:59:25.045Z,2.20
2022-09-16T09:02:09.732Z,2.15
2022-09-16T09:04:37.235Z,1.65
2022-09-16T09:07:10.410Z,2.80
2022-09-16T09:09:51.867Z,4.68
2022-09-16T09:12:23.956Z,1.85
2022-09-16T09:15:00.383Z,2.25
2022-09-16T09:17:48.002Z,3.90
2022-09-16T09:20:31.826Z,2.67
2022-09-16T09:23:02.031Z,2.67
2022-09-16T09:25:31.888Z,2.83
2022-09-16T09:28:04.882Z,3.60
2022-09-16T09:30:32.133Z,3.53
2022-09-16T09:33:02.279Z,2.08
2022-09-16T09:35:29.577Z,4.22
2022-09-16T09:37:59.492Z,2.38
2022-09-16T09:40:43.521Z,1.77
2022-09-16T09:43:12.961Z,2.67
2022-09-16T09:45:43.630Z,3.92
2022-09-16T09:48:14.003Z,3.58
2022-09-16T09:50:43.964Z,4.95
2022-09-16T09:53:28.709Z,4.25
2022-09-16T09:55:59.079Z,3.67
2022-09-16T09:58:42.266Z,2.45
2022-09-16T10:01:09.682Z,2.60
2022-09-16T10:03:38.036Z,2.70
2022-09-16T10:06:05.222Z,2.33
2022-09-16T10:08:37.410Z,4.28
2022-09-16T10:11:04.843Z,2.25
2022-09-16T10:13:32.020Z,6.25
2022-09-16T10:16:28.645Z,3.47
2022-09-16T10:19:01.595Z,2.63
2022-09-16T10:21:38.793Z,3.33
2022-09-16T10:24:05.954Z,3.47
2022-09-16T10:26:40.009Z,2.40
2022-09-16T10:29:17.495Z,3.92
2022-09-16T10:31:44.679Z,3.13
2022-09-16T10:34:17.859Z,3.45
2022-09-16T10:36:45.043Z,3.92
2022-09-16T10:39:22.306Z,1.95
2022-09-16T10:41:49.458Z,2.83
2022-09-16T10:44:18.430Z,1.73
2022-09-16T10:47:12.010Z,1.98
2022-09-16T10:49:39.827Z,2.08
2022-09-16T10:52:20.116Z,2.00
2022-09-16T10:54:47.307Z,4.53
2022-09-16T10:57:21.607Z,2.15
2022-09-16T10:59:57.981Z,1.55
2022-09-16T11:02:44.505Z,4.03
2022-09-16T11:05:17.636Z,3.65
2022-09-16T11:08:07.832Z,1.92
2022-09-16T11:10:40.146Z,2.70
2022-09-16T11:13:22.597Z,4.00
2022-09-16T11:15:52.546Z,1.58
2022-09-16T11:18:19.674Z,1.60
2022-09-16T11:21:05.670Z,1.83
2022-09-16T11:23:46.370Z,2.13
2022-09-16T11:26:25.738Z,2.35
2022-09-16T11:29:03.518Z,2.88
2022-09-16T11:31:30.746Z,1.98
2022-09-16T11:34:16.728Z,2.28
2022-09-16T11:36:50.691Z,2.13
2022-09-16T11:39:20.615Z,2.42
2022-09-16T11:42:00.304Z,1.92
2022-09-16T11:44:30.456Z,2.30
2022-09-16T11:47:00.565Z,2.10
2022-09-16T11:50:00.021Z,2.28
2022-09-16T11:52:33.755Z,3.35
2022-09-16T11:55:07.038Z,3.03
2022-09-16T11:57:38.443Z,1.65
2022-09-16T12:00:10.412Z,1.48
2022-09-16T12:02:39.213Z,2.42
2022-09-16T12:05:08.566Z,7.68
2022-09-16T12:07:35.661Z,1.88
2022-09-16T12:10:05.629Z,2.75
2022-09-16T12:12:46.096Z,3.00
2022-09-16T12:15:18.717Z,2.90
2022-09-16T12:17:50.533Z,3.90
2022-09-16T12:20:19.430Z,3.40
2022-09-16T12:22:55.424Z,4.60
2022-09-16T12:25:46.269Z,3.22
2022-09-16T12:28:17.615Z,1.52
2022-09-16T12:30:48.279Z,2.15
2022-09-16T12:33:23.198Z,1.30
2022-09-16T12:36:00.807Z,2.47
2022-09-16T12:38:27.913Z,2.40
2022-09-16T12:41:19.350Z,3.35
2022-09-16T12:44:02.260Z,2.47
2022-09-16T12:46:40.242Z,2.95
2022-09-16T12:49:33.802Z,2.30
2022-09-16T12:52:20.522Z,3.00
2022-09-16T12:55:08.217Z,1.38
2022-09-16T12:58:08.112Z,2.75
2022-09-16T13:00:53.718Z,1.50
2022-09-16T13:03:22.016Z,6.03
2022-09-16T13:05:50.242Z,2.40
2022-09-16T13:08:26.894Z,1.15
2022-09-16T13:11:12.127Z,2.28
2022-09-16T13:13:47.926Z,2.30
2022-09-16T13:16:15.299Z,4.45
2022-09-16T13:18:42.487Z,2.35
2022-09-16T13:21:26.158Z,1.75
2022-09-16T13:24:04.311Z,3.05
2022-09-16T13:26:41.359Z,2.15
2022-09-16T13:29:27.316Z,3.05
2022-09-16T13:34:26.648Z,2.67
2022-09-16T13:36:53.812Z,2.03
2022-09-16T13:39:31.235Z,1.95
2022-09-16T13:41:58.325Z,3.83
2022-09-16T13:44:32.751Z,4.75
2022-09-16T13:47:14.839Z,3.53
2022-09-16T13:49:43.528Z,2.08
2022-09-16T13:52:14.039Z,8.43
2022-09-16T13:55:09.035Z,2.28
2022-09-16T13:57:41.215Z,2.00
2022-09-16T14:00:14.734Z,1.60
2022-09-16T14:02:48.605Z,4.72
2022-09-16T14:05:24.904Z,3.00
2022-09-16T14:07:53.659Z,2.00
2022-09-16T14:10:24.305Z,3.92
2022-09-16T14:12:57.522Z,2.13
2022-09-16T14:15:24.734Z,2.35
2022-09-16T14:17:52.892Z,3.03
2022-09-16T14:20:21.155Z,1.65
2022-09-16T14:22:48.250Z,2.15
2022-09-16T14:25:29.777Z,4.65
2022-09-16T14:28:09.270Z,1.80
2022-09-16T14:30:36.420Z,2.28
2022-09-16T14:33:03.588Z,2.53
2022-09-16T14:35:30.820Z,3.97
2022-09-16T14:38:01.959Z,2.53
2022-09-16T14:40:29.204Z,1.65
2022-09-16T14:43:06.809Z,2.97
2022-09-16T14:45:33.992Z,2.17
2022-09-16T14:48:01.851Z,2.97
2022-09-16T14:50:33.580Z,3.67
2022-09-16T14:53:01.359Z,6.03
2022-09-16T14:55:30.016Z,2.03
2022-09-16T14:57:57.986Z,3.05
2022-09-16T15:00:26.262Z,2.15
2022-09-16T15:02:54.843Z,2.92
2022-09-16T15:05:23.788Z,2.40
2022-09-16T15:08:12.753Z,2.50
2022-09-16T15:10:51.583Z,29.73
2022-09-16T15:13:19.899Z,11.50
2022-09-16T15:15:48.098Z,2.78
2022-09-16T15:18:25.440Z,3.72
2022-09-16T15:20:54.548Z,4.88
2022-09-16T15:23:23.159Z,8.70
2022-09-16T15:25:54.098Z,5.55
2022-09-16T15:31:07.395Z,5.22
2022-09-16T15:33:34.758Z,3.45
2022-09-16T15:36:02.328Z,3.65
2022-09-16T15:38:29.492Z,4.60
2022-09-16T15:41:06.291Z,2.83
2022-09-16T15:43:40.082Z,2.85
2022-09-16T15:46:14.743Z,3.47
2022-09-16T15:48:45.821Z,5.72
2022-09-16T15:51:25.714Z,6.40
2022-09-16T15:53:56.245Z,6.97
2022-09-16T15:56:29.577Z,3.50
2022-09-16T15:59:01.162Z,4.05
2022-09-16T16:01:31.823Z,9.38
2022-09-16T16:03:59.885Z,4.20
2022-09-16T16:06:45.769Z,2.05
2022-09-16T16:09:29.039Z,2.50
2022-09-16T16:11:56.548Z,2.95
2022-09-16T16:14:27.417Z,2.15
2022-09-16T16:17:12.084Z,2.63
2022-09-16T16:19:41.252Z,2.22
2022-09-16T16:22:09.061Z,3.42
2022-09-16T16:24:37.025Z,2.22
2022-09-16T16:27:04.489Z,2.53
2022-09-16T16:29:31.813Z,1.90
2022-09-16T16:32:09.076Z,1.92
2022-09-16T16:34:42.803Z,2.55
2022-09-16T16:37:19.135Z,1.83
2022-09-16T16:39:56.367Z,2.28
2022-09-16T16:42:24.650Z,2.53
2022-09-16T16:44:51.795Z,3.20
2022-09-16T16:47:18.897Z,2.90
2022-09-16T16:49:50.816Z,4.90
2022-09-16T16:52:18.514Z,8.75
2022-09-16T16:54:46.616Z,6.20
2022-09-16T16:57:13.793Z,6.00
2022-09-16T16:59:40.876Z,5.75
2022-09-16T17:02:10.097Z,5.68
2022-09-16T17:04:37.236Z,5.78
2022-09-16T17:07:27.600Z,48.60
2022-09-16T17:09:51.555Z,8.30
2022-09-16T17:12:18.690Z,6.53
2022-09-16T17:14:45.911Z,16.58
2022-09-16T17:17:13.039Z,20.02
2022-09-16T17:19:40.111Z,28.15
2022-09-16T17:22:07.204Z,20.60
2022-09-16T17:24:34.929Z,12.35
2022-09-16T17:27:02.175Z,7.10
2022-09-16T17:29:29.283Z,8.55
2022-09-16T17:31:57.351Z,24.35
2022-09-16T17:34:26.412Z,26.58
2022-09-16T17:36:54.556Z,13.35
2022-09-16T17:39:21.847Z,11.13
2022-09-16T17:41:49.179Z,9.80
2022-09-16T17:44:16.507Z,10.75
2022-09-16T17:46:43.775Z,11.75
2022-09-16T17:49:15.249Z,17.65
2022-09-16T17:51:42.591Z,22.73
2022-09-16T17:54:09.926Z,11.23
2022-09-16T17:56:37.095Z,22.05
2022-09-16T17:59:04.264Z,18.52
2022-09-16T18:01:31.804Z,17.45
2022-09-16T18:03:59.099Z,54.35
2022-09-16T18:06:28.298Z,20.33
2022-09-16T18:08:55.612Z,11.93
2022-09-16T18:11:22.718Z,10.57
2022-09-16T18:13:53.256Z,20.48
2022-09-16T18:16:20.647Z,16.25
2022-09-16T18:18:50.291Z,15.32
2022-09-16T18:21:19.565Z,13.82
2022-09-16T18:23:49.602Z,13.80
2022-09-16T18:26:16.778Z,15.43
2022-09-16T18:29:08.100Z,18.30
2022-09-16T18:31:31.528Z,16.00
2022-09-16T18:33:58.779Z,16.27
2022-09-16T18:36:29.928Z,12.55
2022-09-16T18:38:57.513Z,14.32
2022-09-16T18:41:25.530Z,11.35
2022-09-16T18:43:53.567Z,6.78
2022-09-16T18:46:26.143Z,8.52
2022-09-16T18:48:53.845Z,6.82
2022-09-16T18:51:25.503Z,8.88
2022-09-16T18:53:53.290Z,8.00
2022-09-16T18:56:21.372Z,7.05
2022-09-16T18:59:09.902Z,8.88
2022-09-16T19:01:36.179Z,9.15
2022-09-16T19:04:04.263Z,9.77
2022-09-16T19:06:32.582Z,5.93
2022-09-16T19:09:00.313Z,6.22
2022-09-16T19:11:27.963Z,8.25
2022-09-16T19:13:55.820Z,5.95
2022-09-16T19:16:22.953Z,11.30
2022-09-16T19:18:53.202Z,10.82
2022-09-16T19:21:20.347Z,15.90
2022-09-16T19:23:48.101Z,29.42
2022-09-16T19:26:15.733Z,24.58
2022-09-16T19:28:42.837Z,20.42
2022-09-16T19:31:13.334Z,19.40
2022-09-16T19:33:40.753Z,20.90
2022-09-16T19:36:14.749Z,15.98
2022-09-16T19:38:42.097Z,16.40
2022-09-16T19:41:09.564Z,17.98
2022-09-16T19:43:36.805Z,21.08
2022-09-16T19:46:05.685Z,20.05
2022-09-16T19:48:33.594Z,20.77
2022-09-16T19:51:00.699Z,20.48
2022-09-16T19:53:27.937Z,23.65
2022-09-16T19:55:58.750Z,24.98
2022-09-16T19:58:26.434Z,28.00
2022-09-16T20:01:00.522Z,34.35
2022-09-16T20:03:29.165Z,37.92
2022-09-16T20:06:03.112Z,27.88
2022-09-16T20:08:30.334Z,23.27
2022-09-16T20:11:02.002Z,22.08
2022-09-16T20:13:29.518Z,14.55
2022-09-16T20:15:59.372Z,16.70
2022-09-16T20:18:28.001Z,12.55
2022-09-16T20:21:00.591Z,60.65
2022-09-16T20:23:27.667Z,25.08
2022-09-16T20:25:55.846Z,24.85
2022-09-16T20:28:23.082Z,27.83
2022-09-16T20:30:50.429Z,17.55
2022-09-16T20:33:17.567Z,16.48
2022-09-16T20:35:44.687Z,14.00
2022-09-16T20:38:11.886Z,13.70
2022-09-16T20:40:39.001Z,16.20
2022-09-16T20:43:06.181Z,13.80
2022-09-16T20:45:36.353Z,14.27
2022-09-16T20:48:03.446Z,11.90
2022-09-16T20:50:30.559Z,14.75
2022-09-16T20:52:57.631Z,11.38
2022-09-16T20:55:26.354Z,7.70
2022-09-16T20:57:53.481Z,9.55
2022-09-16T21:00:20.898Z,8.77
2022-09-16T21:02:48.193Z,37.33
2022-09-16T21:05:15.430Z,37.25
2022-09-16T21:07:42.586Z,59.97
2022-09-16T21:10:10.339Z,43.22
2022-09-16T21:12:37.775Z,25.45
2022-09-16T21:15:04.965Z,33.65
2022-09-16T21:17:32.040Z,19.17
2022-09-16T21:19:59.176Z,26.73
2022-09-16T21:22:26.400Z,65.90
2022-09-16T21:24:53.495Z,31.33
2022-09-16T21:27:20.588Z,60.80
2022-09-16T21:29:50.574Z,42.30
2022-09-16T21:32:17.698Z,31.05
2022-09-16T21:34:44.826Z,37.28
2022-09-16T21:37:11.933Z,25.70
2022-09-16T21:39:39.011Z,20.92
2022-09-16T21:42:06.161Z,27.40
2022-09-16T21:44:33.298Z,13.70
2022-09-16T21:47:00.435Z,6.95
2022-09-16T21:49:29.077Z,7.50
2022-09-16T21:51:57.224Z,9.45
2022-09-16T21:54:24.547Z,9.15
2022-09-16T21:56:51.812Z,6.28
2022-09-16T21:59:22.039Z,9.55
2022-09-16T22:01:50.075Z,7.57
2022-09-16T22:04:18.513Z,4.80
2022-09-16T22:06:45.727Z,6.07
2022-09-16T22:09:12.928Z,5.63
2022-09-16T22:11:43.445Z,6.70
2022-09-16T22:14:11.201Z,7.68
2022-09-16T22:16:38.492Z,6.00
2022-09-16T22:19:07.431Z,9.25
2022-09-16T22:21:37.113Z,6.30
2022-09-16T22:24:04.325Z,7.03
2022-09-16T22:26:31.524Z,4.10
2022-09-16T22:28:58.653Z,9.25
2022-09-16T22:31:32.418Z,6.88
2022-09-16T22:34:00.402Z,9.95
2022-09-16T22:36:28.178Z,8.95
2022-09-16T22:38:55.974Z,7.32
2022-09-16T22:41:23.699Z,8.35
2022-09-16T22:43:51.136Z,11.80
2022-09-16T22:46:19.797Z,11.00
2022-09-16T22:48:47.194Z,9.98
2022-09-16T22:51:14.745Z,9.70
2022-09-16T22:53:42.017Z,7.95
2022-09-16T22:56:13.249Z,17.67
2022-09-16T22:58:40.370Z,13.40
2022-09-16T23:01:14.711Z,11.60
2022-09-16T23:03:42.868Z,12.35
2022-09-16T23:06:11.090Z,12.75
2022-09-16T23:08:39.120Z,12.10
2022-09-16T23:11:07.583Z,11.48
2022-09-16T23:13:35.200Z,15.82
2022-09-16T23:16:02.986Z,12.07
2022-09-16T23:18:34.108Z,11.40
2022-09-16T23:21:02.114Z,11.75
2022-09-16T23:23:29.534Z,10.30
2022-09-16T23:25:56.714Z,11.32
2022-09-16T23:28:23.814Z,10.77
2022-09-16T23:30:50.975Z,9.75
2022-09-16T23:33:18.084Z,11.20
2022-09-16T23:35:50.226Z,8.68
2022-09-16T23:38:17.447Z,9.60
2022-09-16T23:40:44.533Z,9.88
2022-09-16T23:43:11.648Z,7.50
2022-09-16T23:45:38.790Z,8.93
2022-09-16T23:48:05.929Z,8.30
2022-09-16T23:50:33.073Z,8.25
2022-09-16T23:53:00.278Z,10.07
2022-09-16T23:55:27.631Z,23.23
2022-09-16T23:57:54.930Z,13.52
